createdAt,value
2023-02-07T00:00:12.756Z,103980.84
2023-02-07T00:02:42.529Z,103972.19
2023-02-07T00:05:08.978Z,103962.09
2023-02-07T00:07:35.426Z,103955.94
2023-02-07T00:10:01.827Z,103953.22
2023-02-07T00:12:28.225Z,103961.88
2023-02-07T00:14:54.619Z,103966.03
2023-02-07T00:17:21.008Z,103982.66
2023-02-07T00:19:47.416Z,103977.59
2023-02-07T00:22:13.828Z,103974.19
2023-02-07T00:24:40.233Z,103975.72
2023-02-07T00:27:06.637Z,103972.19
2023-02-07T00:29:33.025Z,103969.47
2023-02-07T00:31:59.475Z,103962.41
2023-02-07T00:34:25.965Z,103975.59
2023-02-07T00:36:53.006Z,103974.91
2023-02-07T00:39:19.420Z,103964.31
2023-02-07T00:41:45.875Z,103965.13
2023-02-07T00:44:12.438Z,103967.13
2023-02-07T00:46:38.955Z,103971.28
2023-02-07T00:49:05.669Z,103963.53
2023-02-07T00:51:32.379Z,103968.94
2023-02-07T00:53:58.970Z,103962.28
2023-02-07T00:56:26.735Z,103958.97
2023-02-07T00:58:53.148Z,103955.84
2023-02-07T01:01:19.572Z,103945.66
2023-02-07T01:03:46.181Z,103946.56
2023-02-07T01:06:12.727Z,103948.28
2023-02-07T01:08:39.172Z,103947.56
2023-02-07T01:11:08.179Z,103947.75
2023-02-07T01:13:34.707Z,103951.38
2023-02-07T01:16:01.206Z,103952.50
2023-02-07T01:18:27.645Z,103954.13
2023-02-07T01:20:54.026Z,103959.16
2023-02-07T01:23:20.421Z,103961.88
2023-02-07T01:25:46.805Z,103946.03
2023-02-07T01:28:13.746Z,103946.16
2023-02-07T01:30:41.035Z,103944.31
2023-02-07T01:33:07.478Z,103943.41
2023-02-07T01:35:34.081Z,103940.78
2023-02-07T01:38:00.463Z,103938.88
2023-02-07T01:40:26.878Z,103944.13
2023-02-07T01:42:53.267Z,103932.81
2023-02-07T01:45:32.747Z,103935.44
2023-02-07T01:48:08.420Z,103932.56
2023-02-07T01:50:34.856Z,103930.72
2023-02-07T01:53:01.925Z,103921.16
2023-02-07T01:55:31.316Z,103926.28
2023-02-07T01:57:57.706Z,103928.00
2023-02-07T02:00:24.140Z,103935.66
2023-02-07T02:02:50.565Z,103937.38
2023-02-07T02:05:16.989Z,103946.88
2023-02-07T02:07:43.370Z,103946.03
2023-02-07T02:10:18.582Z,103953.09
2023-02-07T02:13:08.206Z,103956.34
2023-02-07T02:15:58.668Z,103945.44
2023-02-07T02:18:52.658Z,103940.84
2023-02-07T02:21:40.746Z,103940.53
2023-02-07T02:24:12.949Z,103942.34
2023-02-07T02:26:58.111Z,103941.81
2023-02-07T02:29:49.614Z,103929.34
2023-02-07T02:32:41.310Z,103920.47
2023-02-07T02:35:37.319Z,103923.59
2023-02-07T02:38:15.935Z,103931.75
2023-02-07T02:40:52.386Z,103931.56
2023-02-07T02:43:25.873Z,103932.25
2023-02-07T02:46:01.554Z,103921.78
2023-02-07T02:48:27.974Z,103912.31
2023-02-07T02:50:54.348Z,103918.75
2023-02-07T02:53:20.775Z,103924.00
2023-02-07T02:56:10.083Z,103918.84
2023-02-07T02:59:00.270Z,103916.13
2023-02-07T03:01:29.607Z,103910.09
2023-02-07T03:04:23.446Z,103911.00
2023-02-07T03:07:00.604Z,103911.78
2023-02-07T03:09:32.963Z,103905.66
2023-02-07T03:12:23.946Z,103900.41
2023-02-07T03:15:05.684Z,103898.81
2023-02-07T03:17:37.623Z,103899.81
2023-02-07T03:20:30.688Z,103894.56
2023-02-07T03:22:58.252Z,103888.63
2023-02-07T03:25:24.655Z,103888.63
2023-02-07T03:27:51.141Z,103885.69
2023-02-07T03:30:18.772Z,103890.94
2023-02-07T03:32:49.597Z,103887.94
2023-02-07T03:35:24.404Z,103890.63
2023-02-07T03:37:55.636Z,103895.97
2023-02-07T03:40:22.637Z,103887.41
2023-02-07T03:43:04.465Z,103887.09
2023-02-07T03:45:30.719Z,103882.00
2023-02-07T03:47:57.131Z,103874.50
2023-02-07T03:50:23.515Z,103875.03
2023-02-07T03:52:49.943Z,103869.78
2023-02-07T03:55:16.360Z,103864.34
2023-02-07T03:57:42.742Z,103863.22
2023-02-07T04:00:10.162Z,103871.19
2023-02-07T04:02:36.559Z,103871.81
2023-02-07T04:05:02.985Z,103860.31
2023-02-07T04:07:29.366Z,103867.56
2023-02-07T04:09:55.785Z,103855.69
2023-02-07T04:12:22.164Z,103862.31
2023-02-07T04:14:48.551Z,103865.56
2023-02-07T04:17:14.936Z,103870.69
2023-02-07T04:19:41.338Z,103875.41
2023-02-07T04:22:07.738Z,103882.75
2023-02-07T04:24:34.143Z,103873.31
2023-02-07T04:27:00.541Z,103873.41
2023-02-07T04:29:26.994Z,103883.47
2023-02-07T04:31:53.442Z,103884.66
2023-02-07T04:34:19.920Z,103880.75
2023-02-07T04:36:46.296Z,103876.59
2023-02-07T04:39:12.700Z,103873.66
2023-02-07T04:41:39.102Z,103880.19
2023-02-07T04:44:05.543Z,103879.28
2023-02-07T04:46:31.947Z,103879.97
2023-02-07T04:48:58.466Z,103884.09
2023-02-07T04:51:24.879Z,103888.00
2023-02-07T04:53:51.309Z,103887.78
2023-02-07T04:56:17.721Z,103893.13
2023-02-07T04:58:44.123Z,103903.25
2023-02-07T05:01:10.588Z,103899.53
2023-02-07T05:03:36.998Z,103905.47
2023-02-07T05:06:03.613Z,103893.97
2023-02-07T05:08:30.060Z,103896.59
2023-02-07T05:10:56.452Z,103895.56
2023-02-07T05:13:23.075Z,103896.13
2023-02-07T05:15:49.594Z,103904.88
2023-02-07T05:18:16.007Z,103902.56
2023-02-07T05:20:42.431Z,103899.56
2023-02-07T05:23:08.833Z,103901.88
2023-02-07T05:25:35.253Z,103902.44
2023-02-07T05:28:01.672Z,103904.38
2023-02-07T05:30:28.161Z,103900.97
2023-02-07T05:32:54.604Z,103909.84
2023-02-07T05:35:20.995Z,103912.00
2023-02-07T05:37:47.606Z,103918.53
2023-02-07T05:40:14.016Z,103924.44
2023-02-07T05:42:40.580Z,103931.09
2023-02-07T05:45:07.766Z,103930.06
2023-02-07T05:47:34.406Z,103933.59
2023-02-07T05:50:00.793Z,103929.16
2023-02-07T05:52:27.212Z,103934.38
2023-02-07T05:54:53.604Z,103934.81
2023-02-07T05:57:20.358Z,103932.19
2023-02-07T05:59:46.758Z,103932.19
2023-02-07T06:02:13.219Z,103941.63
2023-02-07T06:04:39.627Z,103936.88
2023-02-07T06:07:06.029Z,103942.91
2023-02-07T06:09:32.419Z,103949.06
2023-02-07T06:11:58.829Z,103948.03
2023-02-07T06:14:25.253Z,103945.22
2023-02-07T06:16:51.680Z,103950.22
2023-02-07T06:19:18.084Z,103941.34
2023-02-07T06:21:46.638Z,103948.41
2023-02-07T06:24:14.584Z,103941.34
2023-02-07T06:26:40.994Z,103939.31
2023-02-07T06:29:07.386Z,103949.56
2023-02-07T06:31:33.825Z,103951.97
2023-02-07T06:34:00.302Z,103956.41
2023-02-07T06:36:26.689Z,103947.53
2023-02-07T06:38:53.073Z,103956.63
2023-02-07T06:41:19.470Z,103960.22
2023-02-07T06:43:45.912Z,103971.59
2023-02-07T06:46:12.326Z,103965.69
2023-02-07T06:48:38.750Z,103962.84
2023-02-07T06:51:05.271Z,103959.00
2023-02-07T06:53:31.690Z,103966.63
2023-02-07T06:55:58.077Z,103961.63
2023-02-07T06:58:24.489Z,103959.44
2023-02-07T07:00:50.877Z,103972.31
2023-02-07T07:03:17.360Z,103975.72
2023-02-07T07:05:43.884Z,103973.91
2023-02-07T07:08:10.845Z,103970.91
2023-02-07T07:10:37.408Z,103981.59
2023-02-07T07:13:03.899Z,103983.44
2023-02-07T07:15:30.321Z,103978.75
2023-02-07T07:17:56.751Z,103982.97
2023-02-07T07:20:23.145Z,103977.59
2023-02-07T07:22:49.644Z,103978.25
2023-02-07T07:25:16.061Z,103970.19
2023-02-07T07:27:42.456Z,103978.59
2023-02-07T07:30:10.669Z,103974.25
2023-02-07T07:32:37.333Z,103981.09
2023-02-07T07:35:04.099Z,103976.47
2023-02-07T07:37:30.518Z,103980.84
2023-02-07T07:39:57.065Z,103981.69
2023-02-07T07:42:23.468Z,103983.47
2023-02-07T07:44:49.880Z,103988.38
2023-02-07T07:47:16.306Z,103989.91
2023-02-07T07:49:42.730Z,103982.19
2023-02-07T07:52:09.161Z,103987.03
2023-02-07T07:54:35.574Z,103978.72
2023-02-07T07:57:01.967Z,103972.69
2023-02-07T07:59:28.426Z,103977.22
2023-02-07T08:01:54.826Z,103978.22
2023-02-07T08:04:21.268Z,103977.75
2023-02-07T08:06:47.660Z,103977.91
2023-02-07T08:09:14.127Z,103981.34
2023-02-07T08:11:40.536Z,103985.22
2023-02-07T08:14:06.978Z,103987.09
2023-02-07T08:16:33.418Z,103993.47
2023-02-07T08:18:59.818Z,103987.53
2023-02-07T08:21:26.233Z,103990.28
2023-02-07T08:23:55.739Z,103983.63
2023-02-07T08:26:22.169Z,103973.56
2023-02-07T08:28:48.562Z,103971.13
2023-02-07T08:31:15.125Z,103974.19
2023-02-07T08:33:41.576Z,103964.91
2023-02-07T08:36:08.183Z,103960.88
2023-02-07T08:38:34.780Z,103961.91
2023-02-07T08:41:01.239Z,103963.31
2023-02-07T08:43:27.623Z,103956.25
2023-02-07T08:45:54.117Z,103950.78
2023-02-07T08:48:20.662Z,103951.59
2023-02-07T08:50:47.138Z,103964.47
2023-02-07T08:53:13.541Z,103957.81
2023-02-07T08:55:40.533Z,103962.53
2023-02-07T08:58:06.924Z,103965.44
2023-02-07T09:00:33.363Z,103962.22
2023-02-07T09:02:59.762Z,103959.00
2023-02-07T09:05:26.182Z,103958.34
2023-02-07T09:07:52.600Z,103968.03
2023-02-07T09:10:19.138Z,103964.59
2023-02-07T09:12:45.578Z,103973.38
2023-02-07T09:15:11.961Z,103974.91
2023-02-07T09:17:38.366Z,103973.09
2023-02-07T09:20:04.916Z,103971.38
2023-02-07T09:22:31.429Z,103970.56
2023-02-07T09:24:57.828Z,103972.22
2023-02-07T09:27:24.812Z,103964.94
2023-02-07T09:29:51.209Z,103973.09
2023-02-07T09:32:17.646Z,103972.59
2023-02-07T09:34:44.139Z,103977.03
2023-02-07T09:37:10.914Z,103968.94
2023-02-07T09:39:37.318Z,103966.44
2023-02-07T09:42:15.844Z,103975.22
2023-02-07T09:44:57.208Z,103970.97
2023-02-07T09:47:24.757Z,103966.44
2023-02-07T09:49:57.259Z,103971.25
2023-02-07T09:52:35.655Z,103970.44
2023-02-07T09:55:02.579Z,103977.69
2023-02-07T09:57:36.979Z,103974.25
2023-02-07T10:00:19.302Z,103982.94
2023-02-07T10:02:49.501Z,103983.31
2023-02-07T10:05:21.031Z,103979.38
2023-02-07T10:07:47.984Z,103976.31
2023-02-07T10:10:18.438Z,103968.34
2023-02-07T10:13:10.431Z,103974.59
2023-02-07T10:15:48.247Z,103976.50
2023-02-07T10:18:27.582Z,103975.78
2023-02-07T10:21:14.036Z,103974.34
2023-02-07T10:24:03.761Z,103977.16
2023-02-07T10:26:37.210Z,103981.78
2023-02-07T10:29:15.394Z,103979.53
2023-02-07T10:31:44.425Z,103976.19
2023-02-07T10:34:15.510Z,103977.28
2023-02-07T10:36:44.976Z,103978.88
2023-02-07T10:39:21.398Z,103970.31
2023-02-07T10:41:47.819Z,103965.84
2023-02-07T10:44:18.925Z,103956.44
2023-02-07T10:46:46.700Z,103951.56
2023-02-07T10:49:25.482Z,103950.94
2023-02-07T10:51:52.709Z,103945.69
2023-02-07T10:54:20.166Z,103949.94
2023-02-07T10:56:48.810Z,103950.94
2023-02-07T10:59:40.811Z,103947.59
2023-02-07T11:02:30.435Z,103953.03
2023-02-07T11:04:57.704Z,103952.94
2023-02-07T11:07:24.119Z,103951.94
2023-02-07T11:09:50.596Z,103953.03
2023-02-07T11:12:21.754Z,103948.59
2023-02-07T11:15:14.980Z,103946.06
2023-02-07T11:17:50.207Z,103946.13
2023-02-07T11:20:28.170Z,103946.22
2023-02-07T11:22:55.677Z,103941.06
2023-02-07T11:25:48.487Z,103939.53
2023-02-07T11:28:27.969Z,103933.47
2023-02-07T11:31:07.941Z,103923.09
2023-02-07T11:33:35.197Z,103917.31
2023-02-07T11:36:14.197Z,103914.88
2023-02-07T11:38:53.998Z,103917.75
2023-02-07T11:41:25.169Z,103914.69
2023-02-07T11:43:53.391Z,103905.31
2023-02-07T11:46:19.839Z,103904.59
2023-02-07T11:48:47.981Z,103897.75
2023-02-07T11:51:16.593Z,103888.44
2023-02-07T11:53:48.573Z,103893.88
2023-02-07T11:56:42.067Z,103895.09
2023-02-07T11:59:15.235Z,103902.34
2023-02-07T12:01:41.716Z,103907.84
2023-02-07T12:04:10.189Z,103897.50
2023-02-07T12:06:53.244Z,103901.66
2023-02-07T12:09:43.444Z,103905.19
2023-02-07T12:12:16.381Z,103906.41
2023-02-07T12:14:54.207Z,103902.25
2023-02-07T12:17:27.142Z,103896.56
2023-02-07T12:20:05.038Z,103896.16
2023-02-07T12:23:00.218Z,103892.16
2023-02-07T12:25:42.453Z,103883.44
2023-02-07T12:28:24.115Z,103871.41
2023-02-07T12:30:50.789Z,103869.84
2023-02-07T12:33:38.459Z,103870.25
2023-02-07T12:36:04.745Z,103882.94
2023-02-07T12:38:34.810Z,103875.41
2023-02-07T12:41:10.158Z,103881.16
2023-02-07T12:43:36.706Z,103878.91
2023-02-07T12:46:06.209Z,103864.47
2023-02-07T12:49:04.619Z,103871.28
2023-02-07T12:51:40.053Z,103872.66
2023-02-07T12:54:56.249Z,103879.44
2023-02-07T12:57:33.670Z,103866.66
2023-02-07T13:00:12.662Z,103861.06
2023-02-07T13:03:09.368Z,103874.75
2023-02-07T13:05:47.792Z,103873.72
2023-02-07T13:08:17.189Z,103865.56
2023-02-07T13:11:11.326Z,103873.78
2023-02-07T13:13:55.349Z,103864.03
2023-02-07T13:16:50.085Z,103870.53
2023-02-07T13:19:32.471Z,103865.03
2023-02-07T13:22:10.932Z,103867.25
2023-02-07T13:24:37.982Z,103860.03
2023-02-07T13:27:07.460Z,103864.19
2023-02-07T13:29:34.274Z,103865.47
2023-02-07T13:32:06.381Z,103861.91
2023-02-07T13:34:36.749Z,103861.63
2023-02-07T13:37:16.103Z,103869.06
2023-02-07T13:39:52.658Z,103857.00
2023-02-07T13:42:40.558Z,103860.41
2023-02-07T13:45:18.733Z,103861.75
2023-02-07T13:47:56.490Z,103862.53
2023-02-07T13:50:29.203Z,103867.19
2023-02-07T13:53:03.816Z,103867.88
2023-02-07T13:55:40.513Z,103869.53
2023-02-07T13:58:35.164Z,103862.25
2023-02-07T14:01:08.892Z,103859.53
2023-02-07T14:03:35.404Z,103862.34
2023-02-07T14:06:27.371Z,103858.97
2023-02-07T14:09:13.577Z,103850.38
2023-02-07T14:11:44.675Z,103856.72
2023-02-07T14:14:27.039Z,103847.19
2023-02-07T14:16:55.777Z,103843.56
2023-02-07T14:19:51.805Z,103855.16
2023-02-07T14:22:19.565Z,103848.16
2023-02-07T14:25:07.100Z,103849.69
2023-02-07T14:27:43.469Z,103848.66
2023-02-07T14:30:12.798Z,103842.25
2023-02-07T14:33:00.938Z,103848.72
2023-02-07T14:35:29.357Z,103840.75
2023-02-07T14:38:42.862Z,103839.47
2023-02-07T14:41:16.192Z,103841.34
2023-02-07T14:44:07.675Z,103846.22
2023-02-07T14:46:42.711Z,103839.44
2023-02-07T14:49:26.346Z,103840.94
2023-02-07T14:51:57.043Z,103839.41
2023-02-07T14:54:30.247Z,103844.16
2023-02-07T14:57:07.847Z,103845.25
2023-02-07T14:59:45.290Z,103836.78
2023-02-07T15:02:32.618Z,103838.81
2023-02-07T15:04:59.722Z,103828.75
2023-02-07T15:07:26.183Z,103828.31
2023-02-07T15:09:52.588Z,103830.25
2023-02-07T15:12:27.914Z,103832.88
2023-02-07T15:14:54.488Z,103833.53
2023-02-07T15:17:21.399Z,103836.97
2023-02-07T15:19:49.355Z,103836.06
2023-02-07T15:22:26.815Z,103849.28
2023-02-07T15:25:03.590Z,103842.13
2023-02-07T15:27:30.141Z,103840.28
2023-02-07T15:30:01.252Z,103838.69
2023-02-07T15:32:29.859Z,103835.44
2023-02-07T15:34:58.536Z,103837.09
2023-02-07T15:37:25.402Z,103836.16
2023-02-07T15:39:55.514Z,103837.09
2023-02-07T15:42:21.937Z,103839.13
2023-02-07T15:44:52.986Z,103831.25
2023-02-07T15:47:31.411Z,103834.19
2023-02-07T15:50:06.480Z,103831.84
2023-02-07T15:52:40.335Z,103834.84
2023-02-07T15:55:32.581Z,103830.84
2023-02-07T15:57:59.209Z,103837.28
2023-02-07T16:00:36.926Z,103836.00
2023-02-07T16:03:09.098Z,103841.63
2023-02-07T16:05:36.570Z,103846.53
2023-02-07T16:08:03.243Z,103845.50
2023-02-07T16:10:29.520Z,103849.78
2023-02-07T16:13:14.142Z,103849.44
2023-02-07T16:15:54.774Z,103852.41
2023-02-07T16:18:51.279Z,103857.25
2023-02-07T16:21:20.650Z,103842.03
2023-02-07T16:23:47.785Z,103846.91
2023-02-07T16:26:24.308Z,103844.03
2023-02-07T16:28:50.727Z,103839.31
2023-02-07T16:31:17.167Z,103839.81
2023-02-07T16:33:44.764Z,103838.66
2023-02-07T16:36:14.881Z,103849.84
2023-02-07T16:38:41.571Z,103849.41
2023-02-07T16:41:14.003Z,103843.72
2023-02-07T16:43:41.627Z,103845.03
2023-02-07T16:46:10.620Z,103848.94
2023-02-07T16:48:37.072Z,103853.84
2023-02-07T16:51:03.577Z,103852.59
2023-02-07T16:53:30.049Z,103859.31
2023-02-07T16:55:56.517Z,103852.22
2023-02-07T16:58:25.705Z,103854.78
2023-02-07T17:00:52.607Z,103848.47
2023-02-07T17:03:19.056Z,103852.63
2023-02-07T17:05:45.477Z,103856.06
2023-02-07T17:08:15.776Z,103854.25
2023-02-07T17:10:46.002Z,103853.19
2023-02-07T17:13:12.386Z,103849.47
2023-02-07T17:15:38.823Z,103849.28
2023-02-07T17:18:05.277Z,103840.34
2023-02-07T17:20:33.551Z,103842.78
2023-02-07T17:22:59.990Z,103841.59
2023-02-07T17:25:28.186Z,103844.13
2023-02-07T17:27:54.846Z,103845.69
2023-02-07T17:30:25.933Z,103839.53
2023-02-07T17:32:52.354Z,103838.53
2023-02-07T17:35:19.062Z,103847.94
2023-02-07T17:37:45.447Z,103843.59
2023-02-07T17:40:21.653Z,103845.22
2023-02-07T17:42:48.019Z,103842.22
2023-02-07T17:45:14.495Z,103841.94
2023-02-07T17:47:40.913Z,103834.16
2023-02-07T17:50:07.805Z,103841.03
2023-02-07T17:52:34.238Z,103848.84
2023-02-07T17:55:00.662Z,103846.13
2023-02-07T17:57:27.048Z,103848.75
2023-02-07T17:59:53.477Z,103849.56
2023-02-07T18:02:19.921Z,103841.59
2023-02-07T18:04:46.318Z,103839.69
2023-02-07T18:07:12.816Z,103841.59
2023-02-07T18:09:39.204Z,103842.50
2023-02-07T18:12:05.710Z,103833.63
2023-02-07T18:14:32.082Z,103829.28
2023-02-07T18:16:58.480Z,103834.63
2023-02-07T18:19:24.879Z,103831.28
2023-02-07T18:21:51.314Z,103833.00
2023-02-07T18:24:17.714Z,103832.19
2023-02-07T18:26:44.131Z,103834.97
2023-02-07T18:29:10.570Z,103837.69
2023-02-07T18:31:37.044Z,103839.59
2023-02-07T18:34:03.501Z,103851.03
2023-02-07T18:36:29.936Z,103851.94
2023-02-07T18:38:57.297Z,103846.47
2023-02-07T18:41:23.734Z,103849.91
2023-02-07T18:43:50.222Z,103850.13
2023-02-07T18:46:20.262Z,103849.41
2023-02-07T18:48:46.866Z,103855.47
2023-02-07T18:51:14.141Z,103857.69
2023-02-07T18:53:40.532Z,103860.25
2023-02-07T18:56:09.006Z,103857.53
2023-02-07T18:58:37.151Z,103860.06
2023-02-07T19:01:04.825Z,103856.63
2023-02-07T19:03:31.275Z,103858.25
2023-02-07T19:06:01.038Z,103866.94
2023-02-07T19:08:28.233Z,103862.25
2023-02-07T19:10:58.747Z,103861.25
2023-02-07T19:13:25.704Z,103862.16
2023-02-07T19:15:52.222Z,103867.41
2023-02-07T19:18:18.768Z,103866.31
2023-02-07T19:20:45.167Z,103870.28
2023-02-07T19:23:11.725Z,103863.94
2023-02-07T19:25:44.751Z,103858.22
2023-02-07T19:28:11.391Z,103848.78
2023-02-07T19:30:40.113Z,103854.19
2023-02-07T19:33:06.670Z,103849.69
2023-02-07T19:35:35.865Z,103850.41
2023-02-07T19:38:02.361Z,103846.88
2023-02-07T19:40:28.749Z,103851.13
2023-02-07T19:42:55.235Z,103847.38
2023-02-07T19:45:21.644Z,103858.72
2023-02-07T19:47:48.107Z,103856.16
2023-02-07T19:50:14.516Z,103848.03
2023-02-07T19:52:41.376Z,103849.66
2023-02-07T19:55:08.190Z,103853.09
2023-02-07T19:57:34.676Z,103842.88
2023-02-07T20:00:01.309Z,103837.09
2023-02-07T20:02:27.748Z,103839.91
2023-02-07T20:04:54.164Z,103831.22
2023-02-07T20:07:21.369Z,103844.44
2023-02-07T20:09:47.954Z,103823.06
2023-02-07T20:12:14.404Z,103834.88
2023-02-07T20:14:40.828Z,103847.69
2023-02-07T20:17:07.228Z,103848.22
2023-02-07T20:19:34.542Z,103842.38
2023-02-07T20:22:00.959Z,103843.13
2023-02-07T20:24:27.471Z,103844.31
2023-02-07T20:26:53.890Z,103836.44
2023-02-07T20:29:20.387Z,103840.97
2023-02-07T20:31:48.349Z,103833.00
2023-02-07T20:34:15.130Z,103837.53
2023-02-07T20:36:41.785Z,103835.63
2023-02-07T20:39:12.677Z,103838.16
2023-02-07T20:41:39.122Z,103841.56
2023-02-07T20:44:11.778Z,103837.88
2023-02-07T20:46:38.574Z,103831.34
2023-02-07T20:49:07.677Z,103839.84
2023-02-07T20:51:34.170Z,103835.50
2023-02-07T20:54:01.453Z,103841.56
2023-02-07T20:56:27.910Z,103836.22
2023-02-07T20:58:54.467Z,103842.16
2023-02-07T21:01:26.232Z,103836.81
2023-02-07T21:03:54.053Z,103841.97
2023-02-07T21:06:20.639Z,103830.47
2023-02-07T21:08:47.206Z,103837.25
2023-02-07T21:11:15.179Z,103834.31
2023-02-07T21:13:43.977Z,103832.50
2023-02-07T21:16:11.136Z,103834.22
2023-02-07T21:18:37.533Z,103835.78
2023-02-07T21:21:07.522Z,103843.31
2023-02-07T21:23:33.938Z,103838.69
2023-02-07T21:26:04.915Z,103839.31
2023-02-07T21:28:31.361Z,103843.44
2023-02-07T21:31:02.302Z,103847.59
2023-02-07T21:33:28.738Z,103846.78
2023-02-07T21:36:15.077Z,103847.78
2023-02-07T21:38:43.953Z,103851.41
2023-02-07T21:41:10.662Z,103850.50
2023-02-07T21:43:37.062Z,103849.91
2023-02-07T21:46:16.266Z,103850.06
2023-02-07T21:48:42.658Z,103840.34
2023-02-07T21:51:10.710Z,103848.69
2023-02-07T21:53:37.241Z,103848.78
2023-02-07T21:56:05.613Z,103857.34
2023-02-07T21:58:32.108Z,103852.84
2023-02-07T22:01:15.384Z,103862.91
2023-02-07T22:03:42.891Z,103854.03
2023-02-07T22:06:09.484Z,103851.63
2023-02-07T22:08:36.140Z,103855.16
2023-02-07T22:11:04.095Z,103851.03
2023-02-07T22:13:31.761Z,103852.06
2023-02-07T22:15:58.170Z,103852.06
2023-02-07T22:18:24.605Z,103852.06
2023-02-07T22:20:51.046Z,103856.50
2023-02-07T22:23:17.447Z,103847.72
2023-02-07T22:25:43.906Z,103846.59
2023-02-07T22:28:10.754Z,103844.78
2023-02-07T22:30:41.054Z,103845.00
2023-02-07T22:33:08.431Z,103850.94
2023-02-07T22:35:36.175Z,103850.03
2023-02-07T22:38:02.645Z,103852.06
2023-02-07T22:40:29.034Z,103855.16
2023-02-07T22:42:55.437Z,103848.81
2023-02-07T22:45:21.820Z,103850.34
2023-02-07T22:47:48.223Z,103852.16
2023-02-07T22:50:14.624Z,103845.69
2023-02-07T22:52:41.047Z,103842.38
2023-02-07T22:55:07.649Z,103841.25
2023-02-07T22:57:34.048Z,103850.44
2023-02-07T23:00:00.438Z,103844.78
2023-02-07T23:02:30.061Z,103852.25
2023-02-07T23:04:56.500Z,103860.72
2023-02-07T23:07:22.911Z,103857.06
2023-02-07T23:09:49.297Z,103858.00
2023-02-07T23:12:15.704Z,103861.84
2023-02-07T23:14:42.326Z,103855.28
2023-02-07T23:17:08.726Z,103861.31
2023-02-07T23:19:35.176Z,103856.69
2023-02-07T23:22:01.672Z,103862.53
2023-02-07T23:24:28.083Z,103848.41
2023-02-07T23:26:54.472Z,103853.66
2023-02-07T23:29:20.888Z,103854.66
2023-02-07T23:31:47.337Z,103844.91
2023-02-07T23:34:13.755Z,103846.59
2023-02-07T23:36:40.145Z,103848.41
2023-02-07T23:39:06.564Z,103853.47
2023-02-07T23:41:32.999Z,103850.84
2023-02-07T23:43:59.412Z,103855.19
2023-02-07T23:46:26.403Z,103855.09
2023-02-07T23:48:53.223Z,103853.25
2023-02-07T23:51:19.634Z,103856.91
2023-02-07T23:53:46.086Z,103866.34
2023-02-07T23:56:17.701Z,103866.25
2023-02-07T23:58:44.221Z,103873.78
